sensor_id;sensor_type;location;lat;lon;timestamp;P1;durP1;ratioP1;P2;durP2;ratioP2
84175;SDS011;74306;40.114;18.304;2024-02-21T00:00:20;48.08;;;33.97;;
84175;SDS011;74306;40.114;18.304;2024-02-21T00:02:50;47.67;;;35.40;;
84175;SDS011;74306;40.114;18.304;2024-02-21T00:05:21;44.88;;;34.33;;
84175;SDS011;74306;40.114;18.304;2024-02-21T00:07:50;48.25;;;35.30;;
84175;SDS011;74306;40.114;18.304;2024-02-21T00:10:20;47.47;;;34.67;;
84175;SDS011;74306;40.114;18.304;2024-02-21T00:12:49;46.22;;;33.47;;
84175;SDS011;74306;40.114;18.304;2024-02-21T00:15:18;57.22;;;34.45;;
84175;SDS011;74306;40.114;18.304;2024-02-21T00:17:48;47.40;;;34.38;;
84175;SDS011;74306;40.114;18.304;2024-02-21T00:20:17;46.60;;;32.80;;
84175;SDS011;74306;40.114;18.304;2024-02-21T00:22:48;42.35;;;31.80;;
84175;SDS011;74306;40.114;18.304;2024-02-21T00:25:18;43.58;;;31.60;;
84175;SDS011;74306;40.114;18.304;2024-02-21T00:27:48;39.92;;;29.55;;
84175;SDS011;74306;40.114;18.304;2024-02-21T00:30:17;38.75;;;29.25;;
84175;SDS011;74306;40.114;18.304;2024-02-21T00:32:46;41.35;;;30.08;;
84175;SDS011;74306;40.114;18.304;2024-02-21T00:35:16;42.42;;;31.83;;
84175;SDS011;74306;40.114;18.304;2024-02-21T00:37:45;43.75;;;31.98;;
84175;SDS011;74306;40.114;18.304;2024-02-21T00:40:16;43.80;;;31.55;;
84175;SDS011;74306;40.114;18.304;2024-02-21T00:42:47;42.25;;;31.83;;
84175;SDS011;74306;40.114;18.304;2024-02-21T00:45:16;45.58;;;31.90;;
84175;SDS011;74306;40.114;18.304;2024-02-21T00:47:46;47.35;;;33.17;;
84175;SDS011;74306;40.114;18.304;2024-02-21T00:50:15;45.35;;;32.63;;
84175;SDS011;74306;40.114;18.304;2024-02-21T00:52:44;48.05;;;32.35;;
84175;SDS011;74306;40.114;18.304;2024-02-21T00:55:14;46.67;;;33.28;;
84175;SDS011;74306;40.114;18.304;2024-02-21T00:57:44;46.70;;;33.38;;
84175;SDS011;74306;40.114;18.304;2024-02-21T01:00:14;44.72;;;33.15;;
84175;SDS011;74306;40.114;18.304;2024-02-21T01:02:44;48.45;;;34.72;;
84175;SDS011;74306;40.114;18.304;2024-02-21T01:05:13;50.25;;;35.13;;
84175;SDS011;74306;40.114;18.304;2024-02-21T01:07:43;46.58;;;33.72;;
84175;SDS011;74306;40.114;18.304;2024-02-21T01:10:12;51.00;;;36.15;;
84175;SDS011;74306;40.114;18.304;2024-02-21T01:12:43;54.00;;;37.22;;
84175;SDS011;74306;40.114;18.304;2024-02-21T01:15:12;51.45;;;37.65;;
84175;SDS011;74306;40.114;18.304;2024-02-21T01:17:41;50.90;;;37.55;;
84175;SDS011;74306;40.114;18.304;2024-02-21T01:20:11;55.13;;;37.42;;
84175;SDS011;74306;40.114;18.304;2024-02-21T01:22:40;55.63;;;38.40;;
84175;SDS011;74306;40.114;18.304;2024-02-21T01:25:10;56.42;;;37.67;;
84175;SDS011;74306;40.114;18.304;2024-02-21T01:27:39;56.83;;;39.38;;
84175;SDS011;74306;40.114;18.304;2024-02-21T01:30:10;55.75;;;39.83;;
84175;SDS011;74306;40.114;18.304;2024-02-21T01:32:40;56.05;;;39.95;;
84175;SDS011;74306;40.114;18.304;2024-02-21T01:35:09;59.03;;;41.53;;
84175;SDS011;74306;40.114;18.304;2024-02-21T01:37:39;58.75;;;39.92;;
84175;SDS011;74306;40.114;18.304;2024-02-21T01:40:08;57.30;;;40.08;;
84175;SDS011;74306;40.114;18.304;2024-02-21T01:42:38;55.63;;;40.05;;
84175;SDS011;74306;40.114;18.304;2024-02-21T01:45:09;60.25;;;41.10;;
84175;SDS011;74306;40.114;18.304;2024-02-21T01:47:39;54.40;;;40.00;;
84175;SDS011;74306;40.114;18.304;2024-02-21T01:50:10;58.78;;;41.78;;
84175;SDS011;74306;40.114;18.304;2024-02-21T01:52:43;58.05;;;42.78;;
84175;SDS011;74306;40.114;18.304;2024-02-21T01:55:14;61.28;;;43.55;;
84175;SDS011;74306;40.114;18.304;2024-02-21T01:57:45;61.42;;;42.25;;
84175;SDS011;74306;40.114;18.304;2024-02-21T02:00:16;60.58;;;42.85;;
84175;SDS011;74306;40.114;18.304;2024-02-21T02:02:47;63.75;;;43.45;;
84175;SDS011;74306;40.114;18.304;2024-02-21T02:05:16;63.10;;;43.33;;
84175;SDS011;74306;40.114;18.304;2024-02-21T02:07:48;62.95;;;43.75;;
84175;SDS011;74306;40.114;18.304;2024-02-21T02:10:17;62.72;;;43.90;;
84175;SDS011;74306;40.114;18.304;2024-02-21T02:12:47;65.68;;;43.28;;
84175;SDS011;74306;40.114;18.304;2024-02-21T02:15:17;65.13;;;45.65;;
84175;SDS011;74306;40.114;18.304;2024-02-21T02:17:47;61.60;;;43.70;;
84175;SDS011;74306;40.114;18.304;2024-02-21T02:20:16;61.65;;;44.78;;
84175;SDS011;74306;40.114;18.304;2024-02-21T02:22:45;60.67;;;45.40;;
84175;SDS011;74306;40.114;18.304;2024-02-21T02:25:18;59.67;;;45.58;;
84175;SDS011;74306;40.114;18.304;2024-02-21T02:27:48;58.10;;;43.20;;
84175;SDS011;74306;40.114;18.304;2024-02-21T02:30:18;61.63;;;43.67;;
84175;SDS011;74306;40.114;18.304;2024-02-21T02:32:47;59.97;;;43.55;;
84175;SDS011;74306;40.114;18.304;2024-02-21T02:35:16;62.28;;;44.20;;
84175;SDS011;74306;40.114;18.304;2024-02-21T02:37:48;59.83;;;43.65;;
84175;SDS011;74306;40.114;18.304;2024-02-21T02:40:19;58.58;;;42.72;;
84175;SDS011;74306;40.114;18.304;2024-02-21T02:42:49;58.08;;;44.38;;
84175;SDS011;74306;40.114;18.304;2024-02-21T02:45:19;57.22;;;45.75;;
84175;SDS011;74306;40.114;18.304;2024-02-21T02:47:49;61.30;;;46.65;;
84175;SDS011;74306;40.114;18.304;2024-02-21T02:50:18;64.13;;;49.38;;
84175;SDS011;74306;40.114;18.304;2024-02-21T02:52:47;66.57;;;48.33;;
84175;SDS011;74306;40.114;18.304;2024-02-21T02:55:17;64.30;;;49.28;;
84175;SDS011;74306;40.114;18.304;2024-02-21T02:57:48;64.05;;;50.08;;
84175;SDS011;74306;40.114;18.304;2024-02-21T03:00:17;65.82;;;49.70;;
84175;SDS011;74306;40.114;18.304;2024-02-21T03:02:48;63.80;;;47.45;;
84175;SDS011;74306;40.114;18.304;2024-02-21T03:05:18;66.95;;;49.03;;
84175;SDS011;74306;40.114;18.304;2024-02-21T03:07:48;66.43;;;49.47;;
84175;SDS011;74306;40.114;18.304;2024-02-21T03:10:18;66.75;;;47.95;;
84175;SDS011;74306;40.114;18.304;2024-02-21T03:12:48;76.75;;;48.63;;
84175;SDS011;74306;40.114;18.304;2024-02-21T03:15:20;78.70;;;51.05;;
84175;SDS011;74306;40.114;18.304;2024-02-21T03:17:49;73.72;;;50.15;;
84175;SDS011;74306;40.114;18.304;2024-02-21T03:20:18;72.05;;;51.08;;
84175;SDS011;74306;40.114;18.304;2024-02-21T03:22:48;72.22;;;50.05;;
84175;SDS011;74306;40.114;18.304;2024-02-21T03:25:17;74.45;;;49.55;;
84175;SDS011;74306;40.114;18.304;2024-02-21T03:27:47;67.35;;;48.08;;
84175;SDS011;74306;40.114;18.304;2024-02-21T03:30:17;68.43;;;48.38;;
84175;SDS011;74306;40.114;18.304;2024-02-21T03:32:46;62.05;;;47.33;;
84175;SDS011;74306;40.114;18.304;2024-02-21T03:35:16;65.93;;;46.83;;
84175;SDS011;74306;40.114;18.304;2024-02-21T03:37:45;62.75;;;44.95;;
84175;SDS011;74306;40.114;18.304;2024-02-21T03:40:15;65.00;;;44.75;;
84175;SDS011;74306;40.114;18.304;2024-02-21T03:42:44;62.10;;;45.65;;
84175;SDS011;74306;40.114;18.304;2024-02-21T03:45:15;62.85;;;47.83;;
84175;SDS011;74306;40.114;18.304;2024-02-21T03:47:44;64.40;;;46.33;;
84175;SDS011;74306;40.114;18.304;2024-02-21T03:50:14;61.35;;;46.38;;
84175;SDS011;74306;40.114;18.304;2024-02-21T03:52:43;59.92;;;45.50;;
84175;SDS011;74306;40.114;18.304;2024-02-21T03:55:13;58.75;;;44.30;;
84175;SDS011;74306;40.114;18.304;2024-02-21T03:57:42;57.15;;;42.45;;
84175;SDS011;74306;40.114;18.304;2024-02-21T04:00:12;48.33;;;35.95;;
84175;SDS011;74306;40.114;18.304;2024-02-21T04:02:43;41.70;;;32.92;;
84175;SDS011;74306;40.114;18.304;2024-02-21T04:05:15;37.60;;;30.77;;
84175;SDS011;74306;40.114;18.304;2024-02-21T04:07:44;37.95;;;30.98;;
84175;SDS011;74306;40.114;18.304;2024-02-21T04:10:13;38.20;;;30.35;;
84175;SDS011;74306;40.114;18.304;2024-02-21T04:12:43;36.50;;;30.23;;
84175;SDS011;74306;40.114;18.304;2024-02-21T04:15:12;43.70;;;34.35;;
84175;SDS011;74306;40.114;18.304;2024-02-21T04:17:43;51.67;;;39.80;;
84175;SDS011;74306;40.114;18.304;2024-02-21T04:20:13;57.85;;;42.97;;
84175;SDS011;74306;40.114;18.304;2024-02-21T04:22:44;59.35;;;43.80;;
84175;SDS011;74306;40.114;18.304;2024-02-21T04:25:14;56.92;;;43.03;;
84175;SDS011;74306;40.114;18.304;2024-02-21T04:27:43;57.80;;;42.30;;
84175;SDS011;74306;40.114;18.304;2024-02-21T04:30:13;59.42;;;42.90;;
84175;SDS011;74306;40.114;18.304;2024-02-21T04:32:44;60.72;;;44.05;;
84175;SDS011;74306;40.114;18.304;2024-02-21T04:35:13;59.22;;;43.83;;
84175;SDS011;74306;40.114;18.304;2024-02-21T04:37:43;59.42;;;43.72;;
84175;SDS011;74306;40.114;18.304;2024-02-21T04:40:12;58.45;;;43.95;;
84175;SDS011;74306;40.114;18.304;2024-02-21T04:42:41;52.38;;;40.50;;
84175;SDS011;74306;40.114;18.304;2024-02-21T04:45:10;54.25;;;40.03;;
84175;SDS011;74306;40.114;18.304;2024-02-21T04:47:40;50.83;;;38.72;;
84175;SDS011;74306;40.114;18.304;2024-02-21T04:50:11;48.33;;;37.30;;
84175;SDS011;74306;40.114;18.304;2024-02-21T04:52:40;44.53;;;35.58;;
84175;SDS011;74306;40.114;18.304;2024-02-21T04:55:09;49.55;;;36.85;;
84175;SDS011;74306;40.114;18.304;2024-02-21T04:57:39;49.10;;;38.25;;
84175;SDS011;74306;40.114;18.304;2024-02-21T05:00:08;54.08;;;40.47;;
84175;SDS011;74306;40.114;18.304;2024-02-21T05:02:38;57.20;;;41.97;;
84175;SDS011;74306;40.114;18.304;2024-02-21T05:05:07;60.05;;;43.05;;
84175;SDS011;74306;40.114;18.304;2024-02-21T05:07:38;62.58;;;43.25;;
84175;SDS011;74306;40.114;18.304;2024-02-21T05:10:08;59.67;;;43.13;;
84175;SDS011;74306;40.114;18.304;2024-02-21T05:12:37;69.07;;;45.53;;
84175;SDS011;74306;40.114;18.304;2024-02-21T05:15:07;72.80;;;46.45;;
84175;SDS011;74306;40.114;18.304;2024-02-21T05:17:37;73.38;;;44.33;;
84175;SDS011;74306;40.114;18.304;2024-02-21T05:20:06;69.20;;;44.22;;
84175;SDS011;74306;40.114;18.304;2024-02-21T05:22:38;59.83;;;43.30;;
84175;SDS011;74306;40.114;18.304;2024-02-21T05:25:07;57.22;;;41.05;;
84175;SDS011;74306;40.114;18.304;2024-02-21T05:27:37;58.70;;;39.88;;
84175;SDS011;74306;40.114;18.304;2024-02-21T05:30:07;57.55;;;40.28;;
84175;SDS011;74306;40.114;18.304;2024-02-21T05:32:37;49.85;;;37.55;;
84175;SDS011;74306;40.114;18.304;2024-02-21T05:35:07;48.00;;;34.72;;
84175;SDS011;74306;40.114;18.304;2024-02-21T05:37:38;42.22;;;32.80;;
84175;SDS011;74306;40.114;18.304;2024-02-21T05:40:07;41.83;;;32.17;;
84175;SDS011;74306;40.114;18.304;2024-02-21T05:42:39;41.63;;;31.05;;
84175;SDS011;74306;40.114;18.304;2024-02-21T05:45:09;40.38;;;29.85;;
84175;SDS011;74306;40.114;18.304;2024-02-21T05:47:38;36.33;;;28.02;;
84175;SDS011;74306;40.114;18.304;2024-02-21T05:50:08;38.10;;;28.23;;
84175;SDS011;74306;40.114;18.304;2024-02-21T05:52:39;39.30;;;29.63;;
84175;SDS011;74306;40.114;18.304;2024-02-21T05:55:08;37.85;;;30.15;;
84175;SDS011;74306;40.114;18.304;2024-02-21T05:57:38;43.20;;;31.90;;
84175;SDS011;74306;40.114;18.304;2024-02-21T06:00:07;48.72;;;34.92;;
84175;SDS011;74306;40.114;18.304;2024-02-21T06:02:40;49.65;;;37.08;;
84175;SDS011;74306;40.114;18.304;2024-02-21T06:05:10;59.30;;;40.40;;
84175;SDS011;74306;40.114;18.304;2024-02-21T06:07:41;64.57;;;42.28;;
84175;SDS011;74306;40.114;18.304;2024-02-21T06:10:10;63.58;;;41.83;;
84175;SDS011;74306;40.114;18.304;2024-02-21T06:12:40;64.57;;;41.97;;
84175;SDS011;74306;40.114;18.304;2024-02-21T06:15:09;64.32;;;41.88;;
84175;SDS011;74306;40.114;18.304;2024-02-21T06:17:39;69.30;;;43.75;;
84175;SDS011;74306;40.114;18.304;2024-02-21T06:20:09;74.10;;;45.00;;
84175;SDS011;74306;40.114;18.304;2024-02-21T06:22:38;73.07;;;44.40;;
84175;SDS011;74306;40.114;18.304;2024-02-21T06:25:09;73.15;;;45.95;;
84175;SDS011;74306;40.114;18.304;2024-02-21T06:27:38;71.03;;;44.97;;
84175;SDS011;74306;40.114;18.304;2024-02-21T06:30:08;70.93;;;44.72;;
84175;SDS011;74306;40.114;18.304;2024-02-21T06:32:38;69.85;;;44.38;;
84175;SDS011;74306;40.114;18.304;2024-02-21T06:35:07;71.70;;;43.80;;
84175;SDS011;74306;40.114;18.304;2024-02-21T06:37:37;68.38;;;44.42;;
84175;SDS011;74306;40.114;18.304;2024-02-21T06:40:08;65.55;;;42.70;;
84175;SDS011;74306;40.114;18.304;2024-02-21T06:42:38;65.43;;;42.05;;
84175;SDS011;74306;40.114;18.304;2024-02-21T06:45:08;61.55;;;41.25;;
84175;SDS011;74306;40.114;18.304;2024-02-21T06:47:37;60.63;;;39.97;;
84175;SDS011;74306;40.114;18.304;2024-02-21T06:50:07;58.80;;;40.53;;
84175;SDS011;74306;40.114;18.304;2024-02-21T06:52:37;62.95;;;40.88;;
84175;SDS011;74306;40.114;18.304;2024-02-21T06:55:08;57.55;;;39.22;;
84175;SDS011;74306;40.114;18.304;2024-02-21T06:57:37;57.17;;;35.95;;
84175;SDS011;74306;40.114;18.304;2024-02-21T07:00:07;58.88;;;39.33;;
84175;SDS011;74306;40.114;18.304;2024-02-21T07:02:37;54.25;;;37.40;;
84175;SDS011;74306;40.114;18.304;2024-02-21T07:05:07;61.33;;;38.47;;
84175;SDS011;74306;40.114;18.304;2024-02-21T07:07:37;57.65;;;37.97;;
84175;SDS011;74306;40.114;18.304;2024-02-21T07:10:09;58.03;;;38.28;;
84175;SDS011;74306;40.114;18.304;2024-02-21T07:12:39;57.60;;;37.85;;
84175;SDS011;74306;40.114;18.304;2024-02-21T07:15:10;53.45;;;38.85;;
84175;SDS011;74306;40.114;18.304;2024-02-21T07:17:40;54.15;;;36.05;;
84175;SDS011;74306;40.114;18.304;2024-02-21T07:20:10;52.33;;;36.63;;
84175;SDS011;74306;40.114;18.304;2024-02-21T07:22:39;52.22;;;37.55;;
84175;SDS011;74306;40.114;18.304;2024-02-21T07:25:10;55.35;;;35.95;;
84175;SDS011;74306;40.114;18.304;2024-02-21T07:27:40;54.53;;;37.92;;
84175;SDS011;74306;40.114;18.304;2024-02-21T07:30:09;53.97;;;36.13;;
84175;SDS011;74306;40.114;18.304;2024-02-21T07:32:40;50.20;;;36.45;;
84175;SDS011;74306;40.114;18.304;2024-02-21T07:35:09;52.00;;;34.42;;
84175;SDS011;74306;40.114;18.304;2024-02-21T07:37:39;48.35;;;34.95;;
84175;SDS011;74306;40.114;18.304;2024-02-21T07:40:13;49.28;;;34.83;;
84175;SDS011;74306;40.114;18.304;2024-02-21T07:42:43;51.17;;;35.92;;
84175;SDS011;74306;40.114;18.304;2024-02-21T07:45:13;51.75;;;35.03;;
84175;SDS011;74306;40.114;18.304;2024-02-21T07:47:43;45.10;;;32.58;;
84175;SDS011;74306;40.114;18.304;2024-02-21T07:50:12;48.47;;;33.20;;
84175;SDS011;74306;40.114;18.304;2024-02-21T07:52:43;43.00;;;31.00;;
84175;SDS011;74306;40.114;18.304;2024-02-21T07:55:14;45.08;;;30.85;;
84175;SDS011;74306;40.114;18.304;2024-02-21T07:57:44;39.58;;;30.17;;
84175;SDS011;74306;40.114;18.304;2024-02-21T08:00:14;41.15;;;28.75;;
84175;SDS011;74306;40.114;18.304;2024-02-21T08:02:47;38.72;;;28.73;;
84175;SDS011;74306;40.114;18.304;2024-02-21T08:05:17;39.63;;;29.08;;
84175;SDS011;74306;40.114;18.304;2024-02-21T08:07:48;34.78;;;25.25;;
84175;SDS011;74306;40.114;18.304;2024-02-21T08:10:19;35.83;;;26.38;;
84175;SDS011;74306;40.114;18.304;2024-02-21T08:12:48;38.47;;;25.75;;
84175;SDS011;74306;40.114;18.304;2024-02-21T08:15:17;35.35;;;25.58;;
84175;SDS011;74306;40.114;18.304;2024-02-21T08:17:48;29.77;;;23.42;;
84175;SDS011;74306;40.114;18.304;2024-02-21T08:20:17;27.92;;;22.23;;
84175;SDS011;74306;40.114;18.304;2024-02-21T08:22:46;29.98;;;22.38;;
84175;SDS011;74306;40.114;18.304;2024-02-21T08:25:16;24.92;;;20.52;;
84175;SDS011;74306;40.114;18.304;2024-02-21T08:27:46;23.80;;;18.42;;
84175;SDS011;74306;40.114;18.304;2024-02-21T08:30:16;24.80;;;17.80;;
84175;SDS011;74306;40.114;18.304;2024-02-21T08:32:45;22.55;;;17.95;;
84175;SDS011;74306;40.114;18.304;2024-02-21T08:35:15;22.55;;;18.15;;
84175;SDS011;74306;40.114;18.304;2024-02-21T08:37:45;20.60;;;17.13;;
84175;SDS011;74306;40.114;18.304;2024-02-21T08:40:15;20.67;;;15.20;;
84175;SDS011;74306;40.114;18.304;2024-02-21T08:42:49;18.75;;;14.93;;
84175;SDS011;74306;40.114;18.304;2024-02-21T08:45:19;17.50;;;13.40;;
84175;SDS011;74306;40.114;18.304;2024-02-21T08:47:48;17.15;;;12.43;;
84175;SDS011;74306;40.114;18.304;2024-02-21T08:50:17;13.52;;;10.45;;
84175;SDS011;74306;40.114;18.304;2024-02-21T08:52:49;13.65;;;10.52;;
84175;SDS011;74306;40.114;18.304;2024-02-21T08:55:18;11.77;;;9.48;;
84175;SDS011;74306;40.114;18.304;2024-02-21T08:57:47;13.25;;;9.68;;
84175;SDS011;74306;40.114;18.304;2024-02-21T09:00:18;12.38;;;8.68;;
84175;SDS011;74306;40.114;18.304;2024-02-21T09:02:54;12.85;;;9.27;;
84175;SDS011;74306;40.114;18.304;2024-02-21T09:05:24;13.27;;;8.68;;
84175;SDS011;74306;40.114;18.304;2024-02-21T09:07:53;13.05;;;9.27;;
84175;SDS011;74306;40.114;18.304;2024-02-21T09:10:22;12.27;;;8.73;;
84175;SDS011;74306;40.114;18.304;2024-02-21T09:12:54;12.57;;;9.85;;
84175;SDS011;74306;40.114;18.304;2024-02-21T09:15:23;12.73;;;9.88;;
84175;SDS011;74306;40.114;18.304;2024-02-21T09:17:52;18.35;;;9.68;;
84175;SDS011;74306;40.114;18.304;2024-02-21T09:20:22;14.73;;;9.75;;
84175;SDS011;74306;40.114;18.304;2024-02-21T09:22:51;11.75;;;8.95;;
84175;SDS011;74306;40.114;18.304;2024-02-21T09:25:20;13.50;;;9.35;;
84175;SDS011;74306;40.114;18.304;2024-02-21T09:27:50;11.65;;;9.43;;
84175;SDS011;74306;40.114;18.304;2024-02-21T09:30:21;11.95;;;9.27;;
84175;SDS011;74306;40.114;18.304;2024-02-21T09:32:51;11.68;;;9.13;;
84175;SDS011;74306;40.114;18.304;2024-02-21T09:35:21;11.23;;;8.55;;
84175;SDS011;74306;40.114;18.304;2024-02-21T09:37:50;11.80;;;9.00;;
84175;SDS011;74306;40.114;18.304;2024-02-21T09:40:20;10.75;;;8.48;;
84175;SDS011;74306;40.114;18.304;2024-02-21T09:42:49;11.60;;;8.80;;
84175;SDS011;74306;40.114;18.304;2024-02-21T09:45:29;11.73;;;8.57;;
84175;SDS011;74306;40.114;18.304;2024-02-21T09:48:04;9.98;;;8.55;;
84175;SDS011;74306;40.114;18.304;2024-02-21T09:50:41;13.32;;;9.15;;
84175;SDS011;74306;40.114;18.304;2024-02-21T09:53:12;10.70;;;8.00;;
84175;SDS011;74306;40.114;18.304;2024-02-21T09:55:43;10.13;;;7.65;;
84175;SDS011;74306;40.114;18.304;2024-02-21T09:58:13;9.68;;;7.53;;
84175;SDS011;74306;40.114;18.304;2024-02-21T10:00:44;10.82;;;7.47;;
84175;SDS011;74306;40.114;18.304;2024-02-21T10:03:14;10.32;;;7.53;;
84175;SDS011;74306;40.114;18.304;2024-02-21T10:05:46;10.32;;;7.68;;
84175;SDS011;74306;40.114;18.304;2024-02-21T10:08:17;10.90;;;7.47;;
84175;SDS011;74306;40.114;18.304;2024-02-21T10:10:48;10.88;;;7.22;;
84175;SDS011;74306;40.114;18.304;2024-02-21T10:13:23;9.38;;;6.93;;
84175;SDS011;74306;40.114;18.304;2024-02-21T10:16:05;12.23;;;7.60;;
84175;SDS011;74306;40.114;18.304;2024-02-21T10:18:36;10.02;;;7.75;;
84175;SDS011;74306;40.114;18.304;2024-02-21T10:21:05;9.93;;;7.20;;
84175;SDS011;74306;40.114;18.304;2024-02-21T10:23:42;12.00;;;7.70;;
84175;SDS011;74306;40.114;18.304;2024-02-21T10:26:12;10.38;;;7.70;;
84175;SDS011;74306;40.114;18.304;2024-02-21T10:28:42;11.23;;;7.35;;
84175;SDS011;74306;40.114;18.304;2024-02-21T10:31:20;10.25;;;7.53;;
84175;SDS011;74306;40.114;18.304;2024-02-21T10:33:55;9.77;;;7.03;;
84175;SDS011;74306;40.114;18.304;2024-02-21T10:36:25;9.20;;;6.30;;
84175;SDS011;74306;40.114;18.304;2024-02-21T10:38:54;9.23;;;6.05;;
84175;SDS011;74306;40.114;18.304;2024-02-21T10:41:24;7.35;;;5.55;;
84175;SDS011;74306;40.114;18.304;2024-02-21T10:43:55;7.85;;;6.35;;
84175;SDS011;74306;40.114;18.304;2024-02-21T10:46:26;8.30;;;6.50;;
84175;SDS011;74306;40.114;18.304;2024-02-21T10:49:01;9.00;;;6.57;;
84175;SDS011;74306;40.114;18.304;2024-02-21T10:51:35;9.25;;;6.97;;
84175;SDS011;74306;40.114;18.304;2024-02-21T10:54:13;10.40;;;7.95;;
84175;SDS011;74306;40.114;18.304;2024-02-21T10:56:51;10.07;;;7.95;;
84175;SDS011;74306;40.114;18.304;2024-02-21T10:59:24;12.02;;;7.80;;
84175;SDS011;74306;40.114;18.304;2024-02-21T11:01:58;13.68;;;8.32;;
84175;SDS011;74306;40.114;18.304;2024-02-21T11:04:27;11.52;;;7.97;;
84175;SDS011;74306;40.114;18.304;2024-02-21T11:06:58;11.05;;;8.60;;
84175;SDS011;74306;40.114;18.304;2024-02-21T11:09:32;12.43;;;8.70;;
84175;SDS011;74306;40.114;18.304;2024-02-21T11:12:02;12.50;;;9.05;;
84175;SDS011;74306;40.114;18.304;2024-02-21T11:14:33;14.75;;;9.55;;
84175;SDS011;74306;40.114;18.304;2024-02-21T11:17:15;12.05;;;9.10;;
84175;SDS011;74306;40.114;18.304;2024-02-21T11:19:45;12.32;;;8.88;;
84175;SDS011;74306;40.114;18.304;2024-02-21T11:22:14;12.20;;;9.88;;
84175;SDS011;74306;40.114;18.304;2024-02-21T11:24:45;11.95;;;8.90;;
84175;SDS011;74306;40.114;18.304;2024-02-21T11:27:15;11.40;;;8.68;;
84175;SDS011;74306;40.114;18.304;2024-02-21T11:29:47;11.40;;;8.73;;
84175;SDS011;74306;40.114;18.304;2024-02-21T11:32:20;12.23;;;9.10;;
84175;SDS011;74306;40.114;18.304;2024-02-21T11:34:54;12.38;;;9.82;;
84175;SDS011;74306;40.114;18.304;2024-02-21T11:37:24;11.95;;;8.75;;
84175;SDS011;74306;40.114;18.304;2024-02-21T11:39:55;11.15;;;8.50;;
84175;SDS011;74306;40.114;18.304;2024-02-21T11:42:25;10.48;;;8.20;;
84175;SDS011;74306;40.114;18.304;2024-02-21T11:44:54;9.90;;;7.90;;
84175;SDS011;74306;40.114;18.304;2024-02-21T11:47:27;10.35;;;8.02;;
84175;SDS011;74306;40.114;18.304;2024-02-21T11:49:58;11.35;;;8.65;;
84175;SDS011;74306;40.114;18.304;2024-02-21T11:52:28;12.27;;;8.40;;
84175;SDS011;74306;40.114;18.304;2024-02-21T11:54:57;10.95;;;9.00;;
84175;SDS011;74306;40.114;18.304;2024-02-21T11:57:32;11.80;;;9.38;;
84175;SDS011;74306;40.114;18.304;2024-02-21T12:00:10;11.13;;;8.40;;
84175;SDS011;74306;40.114;18.304;2024-02-21T12:02:43;11.18;;;9.15;;
84175;SDS011;74306;40.114;18.304;2024-02-21T12:05:12;12.70;;;9.98;;
84175;SDS011;74306;40.114;18.304;2024-02-21T12:07:42;11.98;;;9.30;;
84175;SDS011;74306;40.114;18.304;2024-02-21T12:10:12;13.07;;;9.93;;
84175;SDS011;74306;40.114;18.304;2024-02-21T12:12:42;11.75;;;9.70;;
84175;SDS011;74306;40.114;18.304;2024-02-21T12:15:11;10.32;;;8.60;;
84175;SDS011;74306;40.114;18.304;2024-02-21T12:17:41;10.65;;;9.15;;
84175;SDS011;74306;40.114;18.304;2024-02-21T12:20:12;11.43;;;8.68;;
84175;SDS011;74306;40.114;18.304;2024-02-21T12:22:43;11.85;;;9.23;;
84175;SDS011;74306;40.114;18.304;2024-02-21T12:25:15;11.18;;;8.70;;
84175;SDS011;74306;40.114;18.304;2024-02-21T12:27:46;9.90;;;8.32;;
84175;SDS011;74306;40.114;18.304;2024-02-21T12:30:17;11.95;;;8.43;;
84175;SDS011;74306;40.114;18.304;2024-02-21T12:32:49;10.25;;;7.93;;
84175;SDS011;74306;40.114;18.304;2024-02-21T12:35:19;9.88;;;8.13;;
84175;SDS011;74306;40.114;18.304;2024-02-21T12:37:48;10.25;;;9.00;;
84175;SDS011;74306;40.114;18.304;2024-02-21T12:40:18;10.38;;;8.23;;
84175;SDS011;74306;40.114;18.304;2024-02-21T12:42:47;9.80;;;8.23;;
84175;SDS011;74306;40.114;18.304;2024-02-21T12:45:17;11.27;;;8.40;;
84175;SDS011;74306;40.114;18.304;2024-02-21T12:47:46;9.70;;;8.40;;
84175;SDS011;74306;40.114;18.304;2024-02-21T12:50:17;9.80;;;8.43;;
84175;SDS011;74306;40.114;18.304;2024-02-21T12:52:47;10.00;;;8.55;;
84175;SDS011;74306;40.114;18.304;2024-02-21T12:55:16;11.65;;;8.27;;
84175;SDS011;74306;40.114;18.304;2024-02-21T12:57:46;10.27;;;8.93;;
84175;SDS011;74306;40.114;18.304;2024-02-21T13:00:16;12.10;;;8.85;;
84175;SDS011;74306;40.114;18.304;2024-02-21T13:02:47;9.60;;;8.27;;
84175;SDS011;74306;40.114;18.304;2024-02-21T13:05:18;9.13;;;8.13;;
84175;SDS011;74306;40.114;18.304;2024-02-21T13:07:47;10.60;;;8.52;;
84175;SDS011;74306;40.114;18.304;2024-02-21T13:10:17;9.98;;;8.98;;
84175;SDS011;74306;40.114;18.304;2024-02-21T13:12:46;10.32;;;8.73;;
84175;SDS011;74306;40.114;18.304;2024-02-21T13:15:16;9.88;;;8.77;;
84175;SDS011;74306;40.114;18.304;2024-02-21T13:17:45;10.45;;;8.98;;
84175;SDS011;74306;40.114;18.304;2024-02-21T13:20:15;11.10;;;9.95;;
84175;SDS011;74306;40.114;18.304;2024-02-21T13:22:45;11.32;;;9.30;;
84175;SDS011;74306;40.114;18.304;2024-02-21T13:25:15;9.57;;;8.57;;
84175;SDS011;74306;40.114;18.304;2024-02-21T13:27:47;11.02;;;8.90;;
84175;SDS011;74306;40.114;18.304;2024-02-21T13:30:16;10.20;;;9.10;;
84175;SDS011;74306;40.114;18.304;2024-02-21T13:32:46;9.95;;;8.73;;
84175;SDS011;74306;40.114;18.304;2024-02-21T13:35:16;9.70;;;8.70;;
84175;SDS011;74306;40.114;18.304;2024-02-21T13:37:47;9.75;;;8.43;;
84175;SDS011;74306;40.114;18.304;2024-02-21T13:40:17;10.98;;;8.80;;
84175;SDS011;74306;40.114;18.304;2024-02-21T13:42:46;10.20;;;8.70;;
84175;SDS011;74306;40.114;18.304;2024-02-21T13:45:17;9.70;;;8.43;;
84175;SDS011;74306;40.114;18.304;2024-02-21T13:47:47;9.48;;;8.27;;
84175;SDS011;74306;40.114;18.304;2024-02-21T13:50:16;10.00;;;8.85;;
84175;SDS011;74306;40.114;18.304;2024-02-21T13:52:56;9.63;;;8.32;;
84175;SDS011;74306;40.114;18.304;2024-02-21T13:55:25;10.93;;;8.90;;
84175;SDS011;74306;40.114;18.304;2024-02-21T13:57:55;10.85;;;8.77;;
84175;SDS011;74306;40.114;18.304;2024-02-21T14:00:24;10.77;;;8.93;;
84175;SDS011;74306;40.114;18.304;2024-02-21T14:02:54;10.00;;;8.32;;
84175;SDS011;74306;40.114;18.304;2024-02-21T14:05:25;10.60;;;8.90;;
84175;SDS011;74306;40.114;18.304;2024-02-21T14:07:56;11.02;;;8.73;;
84175;SDS011;74306;40.114;18.304;2024-02-21T14:10:25;10.35;;;8.98;;
84175;SDS011;74306;40.114;18.304;2024-02-21T14:12:55;10.93;;;9.27;;
84175;SDS011;74306;40.114;18.304;2024-02-21T14:15:25;10.15;;;8.68;;
84175;SDS011;74306;40.114;18.304;2024-02-21T14:17:54;10.88;;;9.73;;
84175;SDS011;74306;40.114;18.304;2024-02-21T14:20:24;10.88;;;9.65;;
84175;SDS011;74306;40.114;18.304;2024-02-21T14:22:55;12.75;;;9.80;;
84175;SDS011;74306;40.114;18.304;2024-02-21T14:25:24;12.10;;;10.02;;
84175;SDS011;74306;40.114;18.304;2024-02-21T14:27:54;13.05;;;10.40;;
84175;SDS011;74306;40.114;18.304;2024-02-21T14:30:23;12.73;;;10.77;;